createdAt,value
2023-03-06T00:00:07.785Z,24.25
2023-03-06T00:00:43.836Z,26.48
2023-03-06T00:01:07.812Z,24.13
2023-03-06T00:01:21.074Z,25.45
2023-03-06T00:01:33.733Z,25.27
2023-03-06T00:01:48.898Z,25.05
2023-03-06T00:02:01.614Z,24.83
2023-03-06T00:02:15.366Z,23.50
2023-03-06T00:02:28.107Z,24.60
2023-03-06T00:02:40.780Z,26.63
2023-03-06T00:02:53.592Z,24.17
2023-03-06T00:03:06.604Z,22.55
2023-03-06T00:03:19.914Z,21.70
2023-03-06T00:03:33.845Z,20.58
2023-03-06T00:03:46.635Z,21.00
2023-03-06T00:03:59.289Z,22.83
2023-03-06T00:04:12.017Z,23.48
2023-03-06T00:04:24.628Z,22.60
2023-03-06T00:04:38.629Z,23.23
2023-03-06T00:04:51.281Z,23.63
2023-03-06T00:05:05.081Z,23.65
2023-03-06T00:05:18.225Z,22.00
2023-03-06T00:05:31.066Z,21.33
2023-03-06T00:05:44.000Z,24.23
2023-03-06T00:05:57.773Z,26.00
2023-03-06T00:06:10.609Z,24.50
2023-03-06T00:06:23.675Z,22.35
2023-03-06T00:06:36.286Z,21.42
2023-03-06T00:06:50.033Z,22.65
2023-03-06T00:07:02.650Z,23.63
2023-03-06T00:07:15.341Z,25.45
2023-03-06T00:07:27.924Z,24.77
2023-03-06T00:07:40.894Z,24.38
2023-03-06T00:07:53.495Z,23.05
2023-03-06T00:08:07.772Z,25.23
2023-03-06T00:08:20.375Z,27.67
2023-03-06T00:08:32.980Z,29.08
2023-03-06T00:08:45.895Z,27.45
2023-03-06T00:08:58.488Z,26.55
2023-03-06T00:09:11.090Z,24.67
2023-03-06T00:09:23.701Z,22.67
2023-03-06T00:09:37.291Z,21.42
2023-03-06T00:09:49.937Z,21.35
2023-03-06T00:10:02.534Z,23.38
2023-03-06T00:10:17.788Z,24.52
2023-03-06T00:10:32.014Z,25.52
2023-03-06T00:10:45.985Z,26.33
2023-03-06T00:10:59.507Z,27.38
2023-03-06T00:11:14.827Z,26.00
2023-03-06T00:11:27.434Z,28.88
2023-03-06T00:11:40.033Z,28.67
2023-03-06T00:11:52.614Z,24.40
2023-03-06T00:12:05.573Z,24.73
2023-03-06T00:12:18.167Z,26.45
2023-03-06T00:12:31.863Z,29.20
2023-03-06T00:12:44.722Z,26.38
2023-03-06T00:12:59.775Z,25.64
2023-03-06T00:13:14.226Z,30.83
2023-03-06T00:13:30.203Z,31.13
2023-03-06T00:13:42.874Z,29.88
2023-03-06T00:13:57.545Z,28.05
2023-03-06T00:14:11.144Z,26.42
2023-03-06T00:14:23.880Z,28.30
2023-03-06T00:14:36.494Z,29.42
2023-03-06T00:14:49.110Z,31.02
2023-03-06T00:15:02.375Z,29.40
2023-03-06T00:15:16.448Z,29.77
2023-03-06T00:15:29.554Z,30.42
2023-03-06T00:15:43.386Z,32.83
2023-03-06T00:15:59.355Z,33.95
2023-03-06T00:16:12.353Z,34.05
2023-03-06T00:16:25.429Z,33.60
2023-03-06T00:16:38.130Z,35.38
2023-03-06T00:16:54.409Z,34.28
2023-03-06T00:17:08.000Z,33.65
2023-03-06T00:17:20.618Z,32.90
2023-03-06T00:17:33.347Z,30.88
2023-03-06T00:17:45.938Z,32.42
2023-03-06T00:17:58.745Z,35.92
2023-03-06T00:18:12.776Z,37.15
2023-03-06T00:18:25.434Z,33.94
2023-03-06T00:18:38.009Z,32.72
2023-03-06T00:18:50.702Z,31.58
2023-03-06T00:19:03.323Z,31.05
2023-03-06T00:19:16.039Z,34.33
2023-03-06T00:19:28.646Z,34.53
2023-03-06T00:19:42.613Z,30.38
2023-03-06T00:19:56.532Z,30.40
2023-03-06T00:20:10.978Z,30.25
2023-03-06T00:20:25.263Z,28.92
2023-03-06T00:20:40.870Z,28.42
2023-03-06T00:20:53.509Z,24.42
2023-03-06T00:21:07.889Z,22.85
2023-03-06T00:21:20.521Z,25.10
2023-03-06T00:21:34.098Z,27.17
2023-03-06T00:21:46.789Z,27.17
2023-03-06T00:21:59.412Z,28.02
2023-03-06T00:22:15.013Z,27.30
2023-03-06T00:22:27.710Z,24.83
2023-03-06T00:22:40.768Z,24.17
2023-03-06T00:22:54.372Z,23.33
2023-03-06T00:23:08.087Z,22.65
2023-03-06T00:23:20.944Z,23.00
2023-03-06T00:23:33.845Z,24.27
2023-03-06T00:23:46.419Z,24.52
2023-03-06T00:23:59.002Z,25.38
2023-03-06T00:24:11.595Z,24.80
2023-03-06T00:24:25.176Z,25.10
2023-03-06T00:24:37.736Z,26.55
2023-03-06T00:24:53.677Z,27.25
2023-03-06T00:25:07.813Z,27.02
2023-03-06T00:25:21.985Z,27.73
2023-03-06T00:25:36.844Z,25.58
2023-03-06T00:25:49.488Z,23.80
2023-03-06T00:26:03.260Z,26.13
2023-03-06T00:26:15.872Z,27.42
2023-03-06T00:26:28.618Z,27.25
2023-03-06T00:26:41.867Z,28.10
2023-03-06T00:26:54.611Z,27.15
2023-03-06T00:27:07.208Z,26.27
2023-03-06T00:27:20.122Z,26.58
2023-03-06T00:27:34.241Z,25.45
2023-03-06T00:27:47.320Z,24.33
2023-03-06T00:28:00.117Z,22.48
2023-03-06T00:28:14.906Z,21.63
2023-03-06T00:28:30.969Z,21.90
2023-03-06T00:28:43.546Z,21.48
2023-03-06T00:28:56.172Z,21.17
2023-03-06T00:29:10.067Z,22.00
2023-03-06T00:29:22.649Z,23.52
2023-03-06T00:29:35.720Z,23.75
2023-03-06T00:29:49.737Z,24.27
2023-03-06T00:30:02.398Z,26.35
2023-03-06T00:30:17.210Z,27.08
2023-03-06T00:30:29.968Z,25.83
2023-03-06T00:30:43.840Z,24.35
2023-03-06T00:30:56.690Z,22.17
2023-03-06T00:31:09.618Z,20.77
2023-03-06T00:31:22.292Z,21.63
2023-03-06T00:31:35.994Z,24.13
2023-03-06T00:31:48.674Z,24.67
2023-03-06T00:32:02.642Z,22.52
2023-03-06T00:32:15.512Z,24.80
2023-03-06T00:32:28.770Z,25.05
2023-03-06T00:32:41.841Z,23.70
2023-03-06T00:32:54.679Z,22.98
2023-03-06T00:33:07.336Z,23.48
2023-03-06T00:33:20.934Z,22.40
2023-03-06T00:33:33.538Z,22.23
2023-03-06T00:33:46.254Z,22.65
2023-03-06T00:33:58.894Z,22.92
2023-03-06T00:34:11.467Z,23.67
2023-03-06T00:34:24.082Z,22.35
2023-03-06T00:34:36.708Z,22.10
2023-03-06T00:34:51.415Z,22.95
2023-03-06T00:35:05.933Z,24.02
2023-03-06T00:35:18.727Z,24.50
2023-03-06T00:35:31.855Z,24.38
2023-03-06T00:35:44.574Z,22.63
2023-03-06T00:35:57.272Z,22.27
2023-03-06T00:36:10.360Z,20.73
2023-03-06T00:36:22.958Z,21.88
2023-03-06T00:36:35.620Z,24.75
2023-03-06T00:36:49.268Z,24.10
2023-03-06T00:37:01.856Z,23.95
2023-03-06T00:37:14.455Z,23.60
2023-03-06T00:37:27.270Z,25.02
2023-03-06T00:37:40.742Z,23.85
2023-03-06T00:37:53.325Z,22.08
2023-03-06T00:38:05.988Z,19.52
2023-03-06T00:38:18.576Z,20.58
2023-03-06T00:38:33.534Z,22.15
2023-03-06T00:38:47.145Z,22.13
2023-03-06T00:38:59.706Z,24.60
2023-03-06T00:39:12.300Z,24.95
2023-03-06T00:39:24.909Z,22.92
2023-03-06T00:39:37.548Z,21.17
2023-03-06T00:39:50.696Z,20.60
2023-03-06T00:40:06.334Z,21.88
2023-03-06T00:40:21.028Z,22.38
2023-03-06T00:40:33.916Z,21.85
2023-03-06T00:40:46.523Z,22.60
2023-03-06T00:40:59.852Z,22.42
2023-03-06T00:41:13.664Z,21.17
2023-03-06T00:41:27.175Z,20.38
2023-03-06T00:41:40.849Z,19.48
2023-03-06T00:41:53.507Z,20.77
2023-03-06T00:42:06.534Z,22.98
2023-03-06T00:42:19.782Z,22.25
2023-03-06T00:42:32.870Z,21.60
2023-03-06T00:42:46.227Z,21.42
2023-03-06T00:42:58.852Z,21.77
2023-03-06T00:43:12.838Z,24.33
2023-03-06T00:43:25.561Z,23.15
2023-03-06T00:43:38.238Z,20.98
2023-03-06T00:43:50.810Z,23.55
2023-03-06T00:44:03.504Z,22.83
2023-03-06T00:44:17.105Z,22.85
2023-03-06T00:44:29.751Z,25.40
2023-03-06T00:44:42.831Z,27.50
2023-03-06T00:44:55.481Z,26.60
2023-03-06T00:45:09.072Z,26.02
2023-03-06T00:45:21.974Z,23.00
2023-03-06T00:45:35.675Z,23.05
2023-03-06T00:45:48.295Z,24.88
2023-03-06T00:46:01.234Z,24.38
2023-03-06T00:46:13.842Z,23.02
2023-03-06T00:46:26.673Z,25.33
2023-03-06T00:46:39.289Z,26.27
2023-03-06T00:46:52.856Z,26.75
2023-03-06T00:47:05.776Z,26.85
2023-03-06T00:47:18.505Z,26.35
2023-03-06T00:47:31.153Z,24.33
2023-03-06T00:47:43.926Z,23.33
2023-03-06T00:47:56.537Z,22.80
2023-03-06T00:48:09.210Z,23.38
2023-03-06T00:48:22.792Z,25.88
2023-03-06T00:48:35.470Z,26.73
2023-03-06T00:48:48.061Z,24.90
2023-03-06T00:49:00.754Z,23.05
2023-03-06T00:49:13.348Z,21.92
2023-03-06T00:49:25.946Z,20.83
2023-03-06T00:49:38.667Z,22.13
2023-03-06T00:49:53.652Z,22.67
2023-03-06T00:50:07.385Z,21.48
2023-03-06T00:50:20.289Z,21.00
2023-03-06T00:50:32.909Z,20.73
2023-03-06T00:50:45.494Z,19.60
2023-03-06T00:50:58.215Z,19.92
2023-03-06T00:51:13.783Z,22.13
2023-03-06T00:51:26.661Z,23.15
2023-03-06T00:51:40.248Z,22.95
2023-03-06T00:51:52.828Z,24.85
2023-03-06T00:52:05.955Z,24.08
2023-03-06T00:52:18.523Z,24.83
2023-03-06T00:52:31.121Z,24.00
2023-03-06T00:52:43.765Z,23.55
2023-03-06T00:52:56.393Z,22.85
2023-03-06T00:53:11.120Z,21.60
2023-03-06T00:53:24.148Z,22.42
2023-03-06T00:53:37.000Z,22.88
2023-03-06T00:53:49.618Z,22.08
2023-03-06T00:54:02.199Z,19.55
2023-03-06T00:54:14.869Z,21.20
2023-03-06T00:54:28.467Z,21.80
2023-03-06T00:54:41.818Z,22.45
2023-03-06T00:54:54.429Z,22.83
2023-03-06T00:55:07.985Z,21.33
2023-03-06T00:55:20.627Z,22.75
2023-03-06T00:55:33.577Z,22.88
2023-03-06T00:55:46.500Z,19.80
2023-03-06T00:55:59.302Z,19.95
2023-03-06T00:56:12.874Z,19.88
2023-03-06T00:56:26.137Z,22.02
2023-03-06T00:56:38.737Z,22.95
2023-03-06T00:56:51.470Z,23.98
2023-03-06T00:57:04.312Z,24.45
2023-03-06T00:57:16.966Z,22.80
2023-03-06T00:57:30.690Z,22.80
2023-03-06T00:57:44.455Z,22.60
2023-03-06T00:57:57.193Z,22.27
2023-03-06T00:58:09.789Z,22.00
2023-03-06T00:58:22.413Z,22.40
2023-03-06T00:58:35.085Z,25.67
2023-03-06T00:58:47.665Z,26.25
2023-03-06T00:59:01.231Z,27.27
2023-03-06T00:59:13.873Z,24.90
2023-03-06T00:59:27.666Z,22.85
2023-03-06T00:59:40.483Z,24.08
2023-03-06T00:59:53.249Z,24.15
2023-03-06T01:00:08.115Z,22.63
2023-03-06T01:00:22.013Z,25.85
2023-03-06T01:00:34.630Z,28.35
2023-03-06T01:00:47.282Z,27.80
2023-03-06T01:01:00.356Z,25.33
2023-03-06T01:01:13.227Z,24.08
2023-03-06T01:01:25.882Z,25.00
2023-03-06T01:01:38.469Z,25.70
2023-03-06T01:01:52.154Z,23.88
2023-03-06T01:02:05.466Z,22.08
2023-03-06T01:02:18.313Z,20.48
2023-03-06T01:02:31.036Z,21.95
2023-03-06T01:02:43.716Z,22.10
2023-03-06T01:02:56.379Z,22.08
2023-03-06T01:03:09.228Z,22.45
2023-03-06T01:03:22.888Z,22.02
2023-03-06T01:03:35.594Z,22.08
2023-03-06T01:03:48.166Z,23.73
2023-03-06T01:04:00.740Z,23.55
2023-03-06T01:04:13.414Z,23.08
2023-03-06T01:04:26.061Z,23.80
2023-03-06T01:04:38.694Z,22.08
2023-03-06T01:04:53.702Z,23.85
2023-03-06T01:05:07.613Z,25.85
2023-03-06T01:05:20.720Z,23.65
2023-03-06T01:05:35.391Z,22.73
2023-03-06T01:05:48.072Z,23.10
2023-03-06T01:06:00.684Z,23.00
2023-03-06T01:06:13.318Z,22.00
2023-03-06T01:06:26.975Z,22.30
2023-03-06T01:06:39.560Z,21.42
2023-03-06T01:06:52.196Z,21.77
2023-03-06T01:07:04.885Z,23.15
2023-03-06T01:07:17.514Z,23.58
2023-03-06T01:07:33.396Z,24.00
2023-03-06T01:07:47.071Z,23.75
2023-03-06T01:07:59.704Z,25.77
2023-03-06T01:08:12.333Z,26.88
2023-03-06T01:08:24.902Z,24.58
2023-03-06T01:08:37.492Z,22.05
2023-03-06T01:08:50.363Z,20.50
2023-03-06T01:09:03.801Z,21.50
2023-03-06T01:09:17.529Z,23.73
2023-03-06T01:09:30.096Z,23.67
2023-03-06T01:09:42.820Z,23.40
2023-03-06T01:09:55.488Z,21.90
2023-03-06T01:10:10.060Z,23.85
2023-03-06T01:10:23.004Z,25.15
2023-03-06T01:10:38.757Z,23.98
2023-03-06T01:10:52.405Z,23.77
2023-03-06T01:11:05.283Z,24.13
2023-03-06T01:11:17.931Z,25.00
2023-03-06T01:11:30.723Z,24.77
2023-03-06T01:11:43.400Z,24.13
2023-03-06T01:11:56.336Z,24.35
2023-03-06T01:12:09.903Z,24.40
2023-03-06T01:12:23.560Z,26.50
2023-03-06T01:12:37.564Z,27.75
2023-03-06T01:12:50.267Z,26.60
2023-03-06T01:13:02.939Z,25.42
2023-03-06T01:13:15.525Z,27.00
2023-03-06T01:13:28.286Z,28.42
2023-03-06T01:13:40.958Z,27.52
2023-03-06T01:13:53.671Z,25.55
2023-03-06T01:14:06.642Z,27.10
2023-03-06T01:14:19.529Z,26.52
2023-03-06T01:14:33.155Z,26.73
2023-03-06T01:14:45.804Z,25.92
2023-03-06T01:14:58.513Z,26.08
2023-03-06T01:15:13.504Z,25.42
2023-03-06T01:15:26.153Z,25.05
2023-03-06T01:15:38.800Z,24.33
2023-03-06T01:15:51.464Z,24.35
2023-03-06T01:16:09.933Z,25.17
2023-03-06T01:16:22.801Z,23.90
2023-03-06T01:16:35.480Z,23.33
2023-03-06T01:16:48.680Z,26.42
2023-03-06T01:17:01.326Z,28.13
2023-03-06T01:17:14.190Z,27.60
2023-03-06T01:17:28.075Z,25.92
2023-03-06T01:17:40.833Z,23.70
2023-03-06T01:17:54.262Z,26.10
2023-03-06T01:18:07.865Z,27.75
2023-03-06T01:18:20.572Z,27.17
2023-03-06T01:18:33.438Z,27.20
2023-03-06T01:18:47.410Z,27.98
2023-03-06T01:19:00.214Z,28.25
2023-03-06T01:19:13.115Z,29.48
2023-03-06T01:19:25.853Z,29.17
2023-03-06T01:19:38.523Z,28.58
2023-03-06T01:19:52.808Z,28.05
2023-03-06T01:20:06.898Z,27.48
2023-03-06T01:20:19.598Z,29.33
2023-03-06T01:20:32.292Z,30.80
2023-03-06T01:20:45.943Z,31.35
2023-03-06T01:20:58.694Z,31.83
2023-03-06T01:21:11.433Z,30.77
2023-03-06T01:21:24.642Z,28.83
2023-03-06T01:21:37.246Z,28.40
2023-03-06T01:21:49.858Z,29.80
2023-03-06T01:22:02.480Z,28.25
2023-03-06T01:22:16.078Z,27.92
2023-03-06T01:22:28.707Z,29.02
2023-03-06T01:22:41.363Z,28.30
2023-03-06T01:22:55.507Z,29.58
2023-03-06T01:23:08.183Z,31.63
2023-03-06T01:23:20.780Z,29.85
2023-03-06T01:23:34.993Z,28.75
2023-03-06T01:23:47.959Z,26.38
2023-03-06T01:24:00.575Z,27.05
2023-03-06T01:24:13.144Z,29.80
2023-03-06T01:24:25.977Z,31.52
2023-03-06T01:24:39.180Z,29.95
2023-03-06T01:24:51.797Z,27.20
2023-03-06T01:25:04.908Z,25.85
2023-03-06T01:25:18.790Z,25.63
2023-03-06T01:25:31.521Z,26.98
2023-03-06T01:25:44.343Z,32.05
2023-03-06T01:25:57.066Z,32.40
2023-03-06T01:26:10.524Z,30.55
2023-03-06T01:26:24.110Z,29.00
2023-03-06T01:26:36.836Z,30.02
2023-03-06T01:26:49.500Z,30.13
2023-03-06T01:27:02.107Z,29.92
2023-03-06T01:27:14.806Z,30.38
2023-03-06T01:27:27.791Z,29.13
2023-03-06T01:27:40.614Z,29.83
2023-03-06T01:27:54.324Z,28.90
2023-03-06T01:28:06.926Z,26.42
2023-03-06T01:28:19.563Z,26.40
2023-03-06T01:28:34.088Z,27.23
2023-03-06T01:28:46.693Z,29.60
2023-03-06T01:29:00.306Z,30.67
2023-03-06T01:29:12.911Z,30.63
2023-03-06T01:29:26.472Z,29.10
2023-03-06T01:29:39.098Z,29.98
2023-03-06T01:29:51.721Z,32.55
2023-03-06T01:30:05.579Z,31.55
2023-03-06T01:30:18.334Z,28.77
2023-03-06T01:30:30.923Z,29.63
2023-03-06T01:30:43.592Z,28.73
2023-03-06T01:30:57.603Z,30.00
2023-03-06T01:31:11.349Z,29.45
2023-03-06T01:31:24.891Z,28.27
2023-03-06T01:31:37.716Z,30.50
2023-03-06T01:31:50.483Z,29.40
2023-03-06T01:32:03.238Z,29.73
2023-03-06T01:32:15.939Z,27.92
2023-03-06T01:32:30.742Z,28.50
2023-03-06T01:32:43.691Z,31.42
2023-03-06T01:32:56.336Z,28.75
2023-03-06T01:33:08.917Z,29.02
2023-03-06T01:33:21.825Z,28.02
2023-03-06T01:33:36.045Z,30.23
2023-03-06T01:33:48.659Z,32.13
2023-03-06T01:34:01.565Z,33.33
2023-03-06T01:34:14.239Z,32.95
2023-03-06T01:34:26.867Z,30.50
2023-03-06T01:34:39.501Z,29.75
2023-03-06T01:34:54.034Z,30.67
2023-03-06T01:35:08.445Z,30.83
2023-03-06T01:35:21.039Z,31.95
2023-03-06T01:35:33.702Z,33.33
2023-03-06T01:35:46.587Z,30.90
2023-03-06T01:35:59.230Z,29.38
2023-03-06T01:36:13.752Z,31.30
2023-03-06T01:36:26.390Z,34.25
2023-03-06T01:36:39.042Z,36.20
2023-03-06T01:36:51.685Z,35.85
2023-03-06T01:37:04.315Z,31.77
2023-03-06T01:37:17.176Z,30.92
2023-03-06T01:37:29.955Z,29.10
2023-03-06T01:37:43.619Z,30.08
2023-03-06T01:37:56.252Z,31.55
2023-03-06T01:38:09.158Z,30.83
2023-03-06T01:38:22.113Z,29.90
2023-03-06T01:38:35.782Z,27.98
2023-03-06T01:38:48.404Z,28.23
2023-03-06T01:39:00.982Z,32.25
2023-03-06T01:39:14.585Z,33.60
2023-03-06T01:39:28.808Z,33.08
2023-03-06T01:39:41.445Z,32.13
2023-03-06T01:39:54.038Z,30.58
2023-03-06T01:40:08.452Z,31.85
2023-03-06T01:40:21.382Z,31.25
2023-03-06T01:40:36.569Z,29.77
2023-03-06T01:40:49.141Z,31.60
2023-03-06T01:41:03.588Z,33.50
2023-03-06T01:41:16.314Z,31.80
2023-03-06T01:41:28.945Z,31.08
2023-03-06T01:41:41.621Z,30.63
2023-03-06T01:41:54.362Z,29.40
2023-03-06T01:42:07.380Z,31.35
2023-03-06T01:42:21.220Z,33.35
2023-03-06T01:42:33.849Z,34.67
2023-03-06T01:42:49.314Z,38.28
2023-03-06T01:43:10.554Z,38.90
2023-03-06T01:43:27.602Z,33.60
2023-03-06T01:43:44.177Z,36.00
2023-03-06T01:43:56.790Z,37.67
2023-03-06T01:44:10.996Z,37.00
2023-03-06T01:44:23.606Z,38.72
2023-03-06T01:44:36.227Z,36.17
2023-03-06T01:44:59.673Z,34.47
2023-03-06T01:45:50.127Z,33.58
2023-03-06T01:46:28.388Z,37.15
2023-03-06T01:46:43.301Z,38.22
2023-03-06T01:46:55.934Z,35.80
2023-03-06T01:47:08.530Z,39.00
2023-03-06T01:47:21.112Z,39.60
2023-03-06T01:47:33.757Z,35.95
2023-03-06T01:47:46.394Z,37.70
2023-03-06T01:47:59.010Z,40.50
2023-03-06T01:48:11.616Z,39.03
2023-03-06T01:48:24.937Z,36.25
2023-03-06T01:48:38.642Z,37.00
2023-03-06T01:48:55.781Z,37.95
2023-03-06T01:49:14.357Z,36.30
2023-03-06T01:49:31.828Z,37.55
2023-03-06T01:49:44.560Z,38.85
2023-03-06T01:50:01.499Z,35.92
2023-03-06T01:50:15.146Z,37.55
2023-03-06T01:50:28.681Z,40.05
2023-03-06T01:50:41.623Z,42.65
2023-03-06T01:50:54.666Z,42.05
2023-03-06T01:51:07.333Z,40.45
2023-03-06T01:51:20.115Z,38.10
2023-03-06T01:51:36.143Z,38.20
2023-03-06T01:51:52.437Z,38.85
2023-03-06T01:52:09.352Z,36.75
2023-03-06T01:52:26.047Z,34.38
2023-03-06T01:52:43.421Z,37.85
2023-03-06T01:52:59.872Z,41.05
2023-03-06T01:53:13.614Z,38.92
2023-03-06T01:53:26.297Z,36.38
2023-03-06T01:53:40.321Z,37.92
2023-03-06T01:53:53.967Z,39.08
2023-03-06T01:54:12.908Z,40.47
2023-03-06T01:54:28.540Z,39.20
2023-03-06T01:54:44.614Z,37.92
2023-03-06T01:55:02.231Z,39.45
2023-03-06T01:55:18.160Z,37.83
2023-03-06T01:55:35.111Z,38.33
2023-03-06T01:55:48.784Z,37.00
2023-03-06T01:56:01.431Z,35.42
2023-03-06T01:56:15.418Z,41.67
2023-03-06T01:56:29.512Z,40.67
2023-03-06T01:56:45.427Z,36.92
2023-03-06T01:57:04.564Z,37.33
2023-03-06T01:57:20.773Z,34.67
2023-03-06T01:57:35.401Z,33.13
2023-03-06T01:57:52.522Z,33.40
2023-03-06T01:58:08.875Z,37.05
2023-03-06T01:58:22.573Z,37.35
2023-03-06T01:58:36.631Z,35.38
2023-03-06T01:58:51.316Z,33.88
2023-03-06T01:59:04.679Z,39.65
2023-03-06T01:59:18.582Z,39.65
2023-03-06T01:59:36.182Z,36.95
2023-03-06T01:59:53.163Z,38.17
2023-03-06T02:00:10.276Z,34.60
2023-03-06T02:00:25.440Z,31.48
2023-03-06T02:00:38.245Z,38.97
2023-03-06T02:00:50.909Z,40.60
2023-03-06T02:01:04.590Z,36.30
2023-03-06T02:01:19.252Z,34.75
2023-03-06T02:01:33.355Z,38.00
2023-03-06T02:01:47.272Z,38.53
2023-03-06T02:02:01.920Z,38.15
2023-03-06T02:02:15.903Z,37.22
2023-03-06T02:02:28.941Z,38.10
2023-03-06T02:02:45.423Z,39.05
2023-03-06T02:03:04.149Z,38.92
2023-03-06T02:03:21.628Z,36.28
2023-03-06T02:03:34.261Z,39.95
2023-03-06T02:03:49.941Z,38.80
2023-03-06T02:04:02.707Z,35.35
2023-03-06T02:04:17.371Z,36.05
2023-03-06T02:04:30.693Z,35.72
2023-03-06T02:04:44.211Z,33.90
2023-03-06T02:04:59.786Z,36.85
2023-03-06T02:05:12.735Z,37.25
2023-03-06T02:05:25.487Z,37.97
2023-03-06T02:05:39.861Z,37.42
2023-03-06T02:05:53.029Z,35.95
2023-03-06T02:06:07.150Z,35.60
2023-03-06T02:06:21.903Z,35.40
2023-03-06T02:06:36.798Z,38.17
2023-03-06T02:06:49.894Z,38.65
2023-03-06T02:07:04.876Z,38.70
2023-03-06T02:07:20.881Z,37.03
2023-03-06T02:07:34.497Z,36.22
2023-03-06T02:07:48.156Z,38.83
2023-03-06T02:08:02.414Z,38.78
2023-03-06T02:08:18.365Z,37.08
2023-03-06T02:08:31.816Z,36.35
2023-03-06T02:08:44.448Z,35.95
2023-03-06T02:08:58.350Z,38.05
2023-03-06T02:09:12.833Z,35.45
2023-03-06T02:09:29.957Z,33.70
2023-03-06T02:09:42.591Z,38.28
2023-03-06T02:09:55.310Z,39.35
2023-03-06T02:10:09.752Z,38.42
2023-03-06T02:10:22.625Z,37.00
2023-03-06T02:10:36.345Z,34.30
2023-03-06T02:10:58.510Z,34.97
2023-03-06T02:11:13.684Z,35.03
2023-03-06T02:11:26.377Z,35.78
2023-03-06T02:11:39.074Z,36.50
2023-03-06T02:11:51.933Z,33.47
2023-03-06T02:12:10.423Z,33.25
2023-03-06T02:12:23.934Z,36.47
2023-03-06T02:12:37.662Z,36.47
2023-03-06T02:12:51.594Z,38.35
2023-03-06T02:13:04.452Z,42.33
2023-03-06T02:13:17.084Z,40.80
2023-03-06T02:13:30.195Z,39.78
2023-03-06T02:13:44.308Z,35.90
2023-03-06T02:13:58.095Z,39.90
2023-03-06T02:14:13.296Z,40.60
2023-03-06T02:14:26.244Z,41.60
2023-03-06T02:14:40.054Z,40.88
2023-03-06T02:14:53.142Z,35.22
2023-03-06T02:15:06.787Z,39.47
2023-03-06T02:15:22.349Z,43.10
2023-03-06T02:15:35.145Z,39.47
2023-03-06T02:15:48.792Z,35.70
2023-03-06T02:16:02.122Z,36.78
2023-03-06T02:16:16.828Z,38.15
2023-03-06T02:16:31.706Z,37.05
2023-03-06T02:16:44.898Z,38.75
2023-03-06T02:16:57.930Z,41.88
2023-03-06T02:17:15.358Z,39.95
2023-03-06T02:17:28.143Z,37.42
2023-03-06T02:17:42.995Z,36.03
2023-03-06T02:17:56.464Z,36.45
2023-03-06T02:18:09.057Z,38.63
2023-03-06T02:18:21.757Z,35.45
2023-03-06T02:18:35.750Z,34.50
2023-03-06T02:18:49.619Z,35.53
2023-03-06T02:19:06.319Z,35.50
2023-03-06T02:19:30.432Z,36.30
2023-03-06T02:19:52.734Z,37.63
2023-03-06T02:20:12.529Z,39.10
2023-03-06T02:20:32.215Z,37.88
2023-03-06T02:20:49.882Z,39.55
2023-03-06T02:21:06.163Z,37.53
2023-03-06T02:21:23.309Z,37.63
2023-03-06T02:21:37.851Z,37.38
2023-03-06T02:21:50.797Z,33.38
2023-03-06T02:22:03.890Z,34.85
2023-03-06T02:22:17.800Z,35.90
2023-03-06T02:22:37.868Z,36.40
2023-03-06T02:22:57.621Z,36.15
2023-03-06T02:23:14.838Z,36.33
2023-03-06T02:23:33.760Z,36.47
2023-03-06T02:24:01.086Z,36.30
2023-03-06T02:24:23.808Z,34.03
2023-03-06T02:24:41.431Z,36.80
2023-03-06T02:25:01.590Z,36.97
2023-03-06T02:25:26.509Z,33.85
2023-03-06T02:25:42.042Z,35.20
2023-03-06T02:25:55.751Z,32.90
2023-03-06T02:26:10.191Z,32.35
2023-03-06T02:26:23.690Z,33.50
2023-03-06T02:26:38.132Z,37.38
2023-03-06T02:26:52.916Z,38.25
2023-03-06T02:27:07.478Z,36.22
2023-03-06T02:27:21.610Z,35.80
2023-03-06T02:27:34.667Z,33.53
2023-03-06T02:27:48.085Z,32.83
2023-03-06T02:28:01.180Z,33.72
2023-03-06T02:28:15.838Z,32.47
2023-03-06T02:28:28.482Z,30.63
2023-03-06T02:28:42.075Z,31.63
2023-03-06T02:28:54.894Z,33.80
2023-03-06T02:29:08.420Z,34.35
2023-03-06T02:29:24.179Z,33.50
2023-03-06T02:29:36.815Z,31.27
2023-03-06T02:29:49.713Z,29.67
2023-03-06T02:30:06.653Z,30.38
2023-03-06T02:30:20.556Z,30.98
2023-03-06T02:30:33.943Z,26.83
2023-03-06T02:30:49.309Z,24.55
2023-03-06T02:31:02.207Z,26.45
2023-03-06T02:31:21.621Z,32.47
2023-03-06T02:31:34.393Z,34.55
2023-03-06T02:31:48.209Z,30.77
2023-03-06T02:32:00.970Z,28.38
2023-03-06T02:32:13.580Z,28.25
2023-03-06T02:32:26.299Z,27.42
2023-03-06T02:32:38.968Z,28.67
2023-03-06T02:32:51.589Z,27.67
2023-03-06T02:33:04.728Z,26.50
2023-03-06T02:33:21.002Z,27.80
2023-03-06T02:33:33.701Z,27.85
2023-03-06T02:33:46.558Z,26.58
2023-03-06T02:34:05.073Z,26.40
2023-03-06T02:34:53.345Z,27.23
2023-03-06T02:35:08.009Z,27.40
2023-03-06T02:35:22.209Z,27.30
2023-03-06T02:35:36.279Z,27.10
2023-03-06T02:35:52.397Z,25.77
2023-03-06T02:36:06.597Z,28.35
2023-03-06T02:36:19.213Z,29.50
2023-03-06T02:36:33.712Z,26.88
2023-03-06T02:36:49.373Z,26.08
2023-03-06T02:37:08.821Z,24.65
2023-03-06T02:37:22.519Z,27.35
2023-03-06T02:37:36.255Z,27.63
2023-03-06T02:37:49.413Z,27.05
2023-03-06T02:38:08.258Z,26.20
2023-03-06T02:38:25.980Z,25.55
2023-03-06T02:38:44.625Z,27.77
2023-03-06T02:38:58.759Z,27.85
2023-03-06T02:39:13.619Z,28.33
2023-03-06T02:39:28.470Z,29.38
2023-03-06T02:39:45.138Z,27.85
2023-03-06T02:40:09.238Z,29.23
2023-03-06T02:40:23.626Z,28.30
2023-03-06T02:40:36.838Z,28.45
2023-03-06T02:40:51.842Z,28.08
2023-03-06T02:41:07.659Z,28.17
2023-03-06T02:41:20.294Z,27.25
2023-03-06T02:41:34.189Z,28.73
2023-03-06T02:41:46.900Z,27.75
2023-03-06T02:41:59.560Z,24.30
2023-03-06T02:42:18.159Z,24.98
2023-03-06T02:42:30.799Z,26.80
2023-03-06T02:42:46.639Z,26.65
2023-03-06T02:42:59.846Z,26.15
2023-03-06T02:43:17.975Z,26.67
2023-03-06T02:43:35.595Z,29.80
2023-03-06T02:43:50.630Z,32.83
2023-03-06T02:44:03.300Z,29.95
2023-03-06T02:44:16.095Z,29.17
2023-03-06T02:44:29.536Z,28.65
2023-03-06T02:44:42.250Z,27.13
2023-03-06T02:44:58.413Z,27.10
2023-03-06T02:45:15.029Z,29.20
2023-03-06T02:45:33.911Z,31.40
2023-03-06T02:45:48.932Z,29.38
2023-03-06T02:46:01.927Z,28.98
2023-03-06T02:46:14.591Z,30.85
2023-03-06T02:46:28.285Z,29.88
2023-03-06T02:46:41.074Z,27.40
2023-03-06T02:46:53.730Z,27.90
2023-03-06T02:47:07.841Z,30.00
2023-03-06T02:47:20.672Z,28.92
2023-03-06T02:47:33.322Z,28.73
2023-03-06T02:47:45.987Z,29.60
2023-03-06T02:47:59.640Z,28.67
2023-03-06T02:48:13.000Z,27.48
2023-03-06T02:48:25.634Z,26.15
2023-03-06T02:48:38.427Z,25.98
2023-03-06T02:48:51.186Z,26.95
2023-03-06T02:49:03.791Z,29.10
2023-03-06T02:49:16.696Z,31.02
2023-03-06T02:49:29.330Z,30.77
2023-03-06T02:49:41.932Z,29.88
2023-03-06T02:49:55.631Z,32.05
2023-03-06T02:50:09.302Z,34.08
2023-03-06T02:50:21.984Z,32.03
2023-03-06T02:50:34.645Z,30.50
2023-03-06T02:50:48.672Z,29.15
2023-03-06T02:51:01.637Z,29.40
2023-03-06T02:51:14.344Z,28.48
2023-03-06T02:51:28.074Z,28.58
2023-03-06T02:51:40.694Z,26.85
2023-03-06T02:51:53.289Z,25.70
2023-03-06T02:52:07.610Z,28.45
2023-03-06T02:52:20.286Z,29.00
2023-03-06T02:52:33.497Z,29.80
2023-03-06T02:52:46.077Z,28.20
2023-03-06T02:52:58.861Z,27.52
2023-03-06T02:53:15.195Z,27.70
2023-03-06T02:53:27.816Z,28.85
2023-03-06T02:53:40.562Z,31.15
2023-03-06T02:53:53.561Z,32.90
2023-03-06T02:54:06.498Z,33.15
2023-03-06T02:54:19.144Z,32.67
2023-03-06T02:54:31.764Z,30.33
2023-03-06T02:54:44.398Z,28.10
2023-03-06T02:54:57.998Z,28.75
2023-03-06T02:55:11.076Z,33.08
2023-03-06T02:55:25.307Z,32.72
2023-03-06T02:55:38.789Z,31.48
2023-03-06T02:55:51.430Z,28.90
2023-03-06T02:56:04.103Z,27.50
2023-03-06T02:56:19.276Z,27.15
2023-03-06T02:56:32.065Z,28.67
2023-03-06T02:56:45.198Z,28.73
2023-03-06T02:56:57.851Z,30.88
2023-03-06T02:57:10.606Z,31.27
2023-03-06T02:57:23.215Z,31.23
2023-03-06T02:57:35.821Z,29.85
2023-03-06T02:57:48.533Z,30.15
2023-03-06T02:58:02.505Z,29.65
2023-03-06T02:58:15.162Z,28.27
2023-03-06T02:58:27.878Z,27.65
2023-03-06T02:58:40.475Z,31.55
2023-03-06T02:58:53.127Z,33.38
2023-03-06T02:59:05.775Z,31.58